Terminal Aerodrome Forecast
Issued by NWS Bismarck, ND

Home | Current Version | Previous Version | Graphics & Text | Print | Product List | Glossary On
Versions: 1 2 3 4 5 6 7 8 9 10 11 12 13 14 15 16 17 18 19 20
725
FTUS43 KBIS 231729
TAFISN
TAF
KISN 231729Z 2318/2418 11010KT P6SM VCTS FEW050CB FEW110
      TEMPO 2318/2322 5SM TSRA BKN040CB
     FM240100 10006KT P6SM FEW045 SCT200
     FM241300 22005KT P6SM FEW050 SCT140=

USA.gov is the U.S. government's official web portal to all federal, state and local government web resources and services.